createdAt,value
2018-05-29T00:00:07.000Z,43
2018-05-29T00:01:07.000Z,44
2018-05-29T00:02:07.000Z,43
2018-05-29T00:03:07.000Z,44
2018-05-29T00:04:07.000Z,44
2018-05-29T00:05:07.000Z,44
2018-05-29T00:06:07.000Z,44
2018-05-29T00:07:07.000Z,44
2018-05-29T00:08:07.000Z,44
2018-05-29T00:09:07.000Z,44
2018-05-29T00:10:07.000Z,44
2018-05-29T00:11:07.000Z,44
2018-05-29T00:12:07.000Z,44
2018-05-29T00:13:07.000Z,44
2018-05-29T00:14:07.000Z,44
2018-05-29T00:15:07.000Z,44
2018-05-29T00:16:07.000Z,44
2018-05-29T00:17:07.000Z,43
2018-05-29T00:18:07.000Z,44
2018-05-29T00:19:07.000Z,43
2018-05-29T00:20:07.000Z,44
2018-05-29T00:21:07.000Z,44
2018-05-29T00:22:07.000Z,43
2018-05-29T00:23:07.000Z,44
2018-05-29T00:24:07.000Z,44
2018-05-29T00:25:07.000Z,43
2018-05-29T00:26:07.000Z,44
2018-05-29T00:27:07.000Z,43
2018-05-29T00:28:07.000Z,44
2018-05-29T00:29:07.000Z,43
2018-05-29T00:30:07.000Z,44
2018-05-29T00:31:07.000Z,43
2018-05-29T00:32:07.000Z,44
2018-05-29T00:33:07.000Z,44
2018-05-29T00:34:07.000Z,44
2018-05-29T00:35:07.000Z,43
2018-05-29T00:36:07.000Z,44
2018-05-29T00:37:07.000Z,43
2018-05-29T00:38:07.000Z,44
2018-05-29T00:39:07.000Z,43
2018-05-29T00:40:07.000Z,44
2018-05-29T00:41:07.000Z,44
2018-05-29T00:42:07.000Z,44
2018-05-29T00:43:07.000Z,44
2018-05-29T00:45:07.000Z,43
2018-05-29T00:46:07.000Z,44
2018-05-29T00:47:07.000Z,44
2018-05-29T00:48:07.000Z,44
2018-05-29T00:49:07.000Z,44
2018-05-29T00:50:07.000Z,44
2018-05-29T00:51:07.000Z,44
2018-05-29T00:52:07.000Z,44
2018-05-29T00:53:07.000Z,44
2018-05-29T00:54:07.000Z,44
2018-05-29T00:55:07.000Z,44
2018-05-29T00:56:07.000Z,44
2018-05-29T00:57:07.000Z,44
2018-05-29T01:00:53.000Z,44
2018-05-29T01:01:53.000Z,44
2018-05-29T01:02:53.000Z,44
2018-05-29T01:03:52.000Z,44
2018-05-29T01:04:52.000Z,44
2018-05-29T01:06:52.000Z,44
2018-05-29T01:07:52.000Z,44
2018-05-29T01:08:52.000Z,44
2018-05-29T01:09:52.000Z,44
2018-05-29T01:11:52.000Z,44
2018-05-29T01:12:52.000Z,44
2018-05-29T01:13:52.000Z,44
2018-05-29T01:14:52.000Z,44
2018-05-29T01:15:52.000Z,44
2018-05-29T01:16:52.000Z,44
2018-05-29T01:17:52.000Z,44
2018-05-29T01:18:52.000Z,44
2018-05-29T01:19:52.000Z,44
2018-05-29T01:21:52.000Z,44
2018-05-29T01:22:52.000Z,44
2018-05-29T01:23:52.000Z,44
2018-05-29T01:24:52.000Z,44
2018-05-29T01:25:52.000Z,44
2018-05-29T01:26:52.000Z,44
2018-05-29T01:27:52.000Z,44
2018-05-29T01:28:52.000Z,44
2018-05-29T01:30:52.000Z,44
2018-05-29T01:31:52.000Z,44
2018-05-29T01:32:52.000Z,44
2018-05-29T01:33:52.000Z,44
2018-05-29T01:34:52.000Z,44
2018-05-29T01:35:52.000Z,44
2018-05-29T01:36:52.000Z,44
2018-05-29T01:37:52.000Z,44
2018-05-29T01:38:52.000Z,44
2018-05-29T01:39:52.000Z,44
2018-05-29T01:40:52.000Z,44
2018-05-29T01:42:52.000Z,44
2018-05-29T01:43:52.000Z,44
2018-05-29T01:44:52.000Z,44
2018-05-29T01:45:52.000Z,44
2018-05-29T01:46:52.000Z,44
2018-05-29T01:47:52.000Z,44
2018-05-29T01:48:52.000Z,44
2018-05-29T01:49:52.000Z,44
2018-05-29T01:50:52.000Z,44
2018-05-29T01:51:52.000Z,44
2018-05-29T01:52:52.000Z,44
2018-05-29T01:53:52.000Z,44
2018-05-29T01:54:52.000Z,44
2018-05-29T01:55:52.000Z,44
2018-05-29T01:56:52.000Z,44
2018-05-29T01:57:52.000Z,44
2018-05-29T01:58:52.000Z,44
2018-05-29T02:00:52.000Z,44
2018-05-29T02:02:52.000Z,44
2018-05-29T02:03:52.000Z,44
2018-05-29T02:04:52.000Z,44
2018-05-29T02:05:52.000Z,44
2018-05-29T02:06:52.000Z,44
2018-05-29T02:07:52.000Z,44
2018-05-29T02:08:52.000Z,44
2018-05-29T02:09:52.000Z,44
2018-05-29T02:10:52.000Z,44
2018-05-29T02:12:52.000Z,44
2018-05-29T02:13:52.000Z,44
2018-05-29T02:14:52.000Z,44
2018-05-29T02:16:52.000Z,44
2018-05-29T02:17:52.000Z,44
2018-05-29T02:18:52.000Z,44
2018-05-29T02:19:52.000Z,44
2018-05-29T02:20:52.000Z,44
2018-05-29T02:22:52.000Z,44
2018-05-29T02:23:52.000Z,44
2018-05-29T02:24:52.000Z,44
2018-05-29T02:25:52.000Z,44
2018-05-29T02:26:52.000Z,44
2018-05-29T02:27:52.000Z,44
2018-05-29T02:28:52.000Z,44
2018-05-29T02:29:52.000Z,44
2018-05-29T02:30:52.000Z,44
2018-05-29T02:32:52.000Z,44
2018-05-29T02:34:52.000Z,44
2018-05-29T02:35:52.000Z,44
2018-05-29T02:36:52.000Z,44
2018-05-29T02:37:52.000Z,44
2018-05-29T02:38:52.000Z,44
2018-05-29T02:39:52.000Z,45
2018-05-29T02:40:52.000Z,44
2018-05-29T02:41:52.000Z,44
2018-05-29T02:42:52.000Z,44
2018-05-29T02:43:52.000Z,44
2018-05-29T02:44:52.000Z,44
2018-05-29T02:45:52.000Z,44
2018-05-29T02:46:52.000Z,44
2018-05-29T02:47:52.000Z,44
2018-05-29T02:48:52.000Z,44
2018-05-29T02:50:52.000Z,44
2018-05-29T02:51:52.000Z,44
2018-05-29T02:52:52.000Z,44
2018-05-29T02:53:52.000Z,45
2018-05-29T02:54:52.000Z,44
2018-05-29T02:55:52.000Z,45
2018-05-29T02:56:52.000Z,45
2018-05-29T02:58:52.000Z,44
2018-05-29T02:59:52.000Z,45
2018-05-29T03:00:52.000Z,44
2018-05-29T03:01:52.000Z,45
2018-05-29T03:03:52.000Z,44
2018-05-29T03:04:52.000Z,45
2018-05-29T03:05:52.000Z,45
2018-05-29T03:06:52.000Z,45
2018-05-29T03:07:52.000Z,44
2018-05-29T03:08:52.000Z,45
2018-05-29T03:10:53.000Z,44
2018-05-29T03:11:53.000Z,45
2018-05-29T03:12:53.000Z,45
2018-05-29T03:13:53.000Z,45
2018-05-29T03:14:53.000Z,45
2018-05-29T03:16:53.000Z,45
2018-05-29T03:17:53.000Z,45
2018-05-29T03:18:53.000Z,45
2018-05-29T03:19:53.000Z,45
2018-05-29T03:20:53.000Z,45
2018-05-29T03:21:53.000Z,45
2018-05-29T03:22:53.000Z,44
2018-05-29T03:23:53.000Z,45
2018-05-29T03:24:53.000Z,45
2018-05-29T03:25:53.000Z,44
2018-05-29T03:26:53.000Z,45
2018-05-29T03:27:53.000Z,45
2018-05-29T03:28:53.000Z,45
2018-05-29T03:29:53.000Z,45
2018-05-29T03:31:53.000Z,44
2018-05-29T03:32:53.000Z,45
2018-05-29T03:34:53.000Z,44
2018-05-29T03:35:53.000Z,45
2018-05-29T03:36:53.000Z,45
2018-05-29T03:37:53.000Z,45
2018-05-29T03:38:53.000Z,45
2018-05-29T03:39:53.000Z,45
2018-05-29T03:40:53.000Z,45
2018-05-29T03:41:53.000Z,45
2018-05-29T03:42:53.000Z,45
2018-05-29T03:43:53.000Z,45
2018-05-29T03:44:53.000Z,45
2018-05-29T03:45:53.000Z,45
2018-05-29T03:46:53.000Z,45
2018-05-29T03:48:53.000Z,44
2018-05-29T03:49:53.000Z,45
2018-05-29T03:50:53.000Z,44
2018-05-29T03:51:53.000Z,45
2018-05-29T03:52:53.000Z,45
2018-05-29T03:54:53.000Z,45
2018-05-29T03:55:53.000Z,45
2018-05-29T03:56:53.000Z,45
2018-05-29T03:57:53.000Z,45
2018-05-29T03:58:53.000Z,45
2018-05-29T03:59:53.000Z,45
2018-05-29T04:00:53.000Z,45
2018-05-29T04:01:53.000Z,45
2018-05-29T04:02:53.000Z,44
2018-05-29T04:03:53.000Z,45
2018-05-29T04:05:53.000Z,44
2018-05-29T04:06:53.000Z,45
2018-05-29T04:07:53.000Z,45
2018-05-29T04:08:53.000Z,45
2018-05-29T04:09:53.000Z,45
2018-05-29T04:10:53.000Z,45
2018-05-29T04:11:53.000Z,45
2018-05-29T04:12:53.000Z,44
2018-05-29T04:13:53.000Z,45
2018-05-29T04:14:53.000Z,44
2018-05-29T04:15:53.000Z,44
2018-05-29T04:16:53.000Z,44
2018-05-29T04:17:53.000Z,45
2018-05-29T04:18:53.000Z,45
2018-05-29T04:19:53.000Z,45
2018-05-29T04:20:53.000Z,45
2018-05-29T04:21:53.000Z,45
2018-05-29T04:22:53.000Z,45
2018-05-29T04:23:53.000Z,45
2018-05-29T04:24:53.000Z,45
2018-05-29T04:25:53.000Z,45
2018-05-29T04:26:53.000Z,45
2018-05-29T04:28:53.000Z,44
2018-05-29T04:29:53.000Z,45
2018-05-29T04:30:53.000Z,45
2018-05-29T04:31:53.000Z,45
2018-05-29T04:32:53.000Z,45
2018-05-29T04:33:53.000Z,45
2018-05-29T04:34:53.000Z,45
2018-05-29T04:35:53.000Z,45
2018-05-29T04:37:53.000Z,45
2018-05-29T04:38:53.000Z,45
2018-05-29T04:39:53.000Z,45
2018-05-29T04:40:53.000Z,45
2018-05-29T04:41:53.000Z,45
2018-05-29T04:42:53.000Z,45
2018-05-29T04:43:53.000Z,46
2018-05-29T04:44:53.000Z,46
2018-05-29T04:45:53.000Z,46
2018-05-29T04:46:53.000Z,46
2018-05-29T04:47:53.000Z,46
2018-05-29T04:48:53.000Z,46
2018-05-29T04:49:53.000Z,46
2018-05-29T04:50:53.000Z,47
2018-05-29T04:51:53.000Z,46
2018-05-29T04:52:53.000Z,47
2018-05-29T04:54:53.000Z,47
2018-05-29T04:55:53.000Z,47
2018-05-29T04:56:53.000Z,47
2018-05-29T04:57:53.000Z,47
2018-05-29T04:58:53.000Z,47
2018-05-29T04:59:53.000Z,47
2018-05-29T05:00:53.000Z,47
2018-05-29T05:02:53.000Z,47
2018-05-29T05:03:53.000Z,47
2018-05-29T05:04:53.000Z,47
2018-05-29T05:05:53.000Z,47
2018-05-29T05:06:53.000Z,47
2018-05-29T05:08:53.000Z,47
2018-05-29T05:09:53.000Z,47
2018-05-29T05:11:53.000Z,47
2018-05-29T05:13:53.000Z,47
2018-05-29T05:14:53.000Z,48
2018-05-29T05:15:53.000Z,48
2018-05-29T05:16:53.000Z,48
2018-05-29T05:17:53.000Z,48
2018-05-29T05:18:53.000Z,48
2018-05-29T05:20:53.000Z,47
2018-05-29T05:21:53.000Z,48
2018-05-29T05:22:53.000Z,48
2018-05-29T05:23:53.000Z,48
2018-05-29T05:25:53.000Z,47
2018-05-29T05:26:53.000Z,47
2018-05-29T05:27:53.000Z,47
2018-05-29T05:28:53.000Z,47
2018-05-29T05:29:53.000Z,47
2018-05-29T05:30:53.000Z,47
2018-05-29T05:31:53.000Z,47
2018-05-29T05:32:53.000Z,47
2018-05-29T05:33:53.000Z,47
2018-05-29T05:34:53.000Z,47
2018-05-29T05:35:53.000Z,47
2018-05-29T05:36:53.000Z,47
2018-05-29T05:37:53.000Z,47
2018-05-29T05:38:53.000Z,46
2018-05-29T05:39:53.000Z,47
2018-05-29T05:40:53.000Z,46
2018-05-29T05:41:53.000Z,46
2018-05-29T05:42:53.000Z,46
2018-05-29T05:43:53.000Z,46
2018-05-29T05:44:53.000Z,46
2018-05-29T05:45:53.000Z,46
2018-05-29T05:46:53.000Z,46
2018-05-29T05:47:53.000Z,46
2018-05-29T05:48:53.000Z,46
2018-05-29T05:49:53.000Z,46
2018-05-29T05:50:53.000Z,46
2018-05-29T05:51:53.000Z,46
2018-05-29T05:52:53.000Z,46
2018-05-29T05:53:53.000Z,46
2018-05-29T05:54:53.000Z,46
2018-05-29T05:55:53.000Z,46
2018-05-29T05:56:53.000Z,46
2018-05-29T05:58:53.000Z,46
2018-05-29T05:59:53.000Z,46
2018-05-29T06:00:53.000Z,45
2018-05-29T06:01:53.000Z,45
2018-05-29T06:02:53.000Z,46
2018-05-29T06:03:53.000Z,46
2018-05-29T06:04:53.000Z,46
2018-05-29T06:05:53.000Z,46
2018-05-29T06:06:53.000Z,47
2018-05-29T06:07:53.000Z,46
2018-05-29T06:08:53.000Z,46
2018-05-29T06:09:53.000Z,46
2018-05-29T06:10:53.000Z,46
2018-05-29T06:11:53.000Z,46
2018-05-29T06:12:53.000Z,46
2018-05-29T06:13:53.000Z,46
2018-05-29T06:15:53.000Z,46
2018-05-29T06:16:53.000Z,46
2018-05-29T06:17:53.000Z,46
2018-05-29T06:18:53.000Z,46
2018-05-29T06:19:53.000Z,46
2018-05-29T06:20:53.000Z,45
2018-05-29T06:21:53.000Z,45
2018-05-29T06:23:53.000Z,45
2018-05-29T06:24:53.000Z,46
2018-05-29T06:25:53.000Z,46
2018-05-29T06:26:53.000Z,45
2018-05-29T06:27:53.000Z,45
2018-05-29T06:28:53.000Z,46
2018-05-29T06:29:53.000Z,46
2018-05-29T06:31:53.000Z,46
2018-05-29T06:32:53.000Z,46
2018-05-29T06:34:53.000Z,46
2018-05-29T06:35:53.000Z,47
2018-05-29T06:36:53.000Z,47
2018-05-29T06:37:53.000Z,47
2018-05-29T06:38:53.000Z,46
2018-05-29T06:40:53.000Z,46
2018-05-29T06:41:53.000Z,46
2018-05-29T06:42:53.000Z,45
2018-05-29T06:43:53.000Z,46
2018-05-29T06:44:53.000Z,45
2018-05-29T06:45:53.000Z,45
2018-05-29T06:46:53.000Z,45
2018-05-29T06:47:53.000Z,45
2018-05-29T06:48:53.000Z,45
2018-05-29T06:50:53.000Z,46
2018-05-29T06:52:53.000Z,45
2018-05-29T06:53:53.000Z,45
2018-05-29T06:54:53.000Z,45
2018-05-29T06:55:53.000Z,45
2018-05-29T06:56:53.000Z,45
2018-05-29T06:57:53.000Z,45
2018-05-29T06:58:53.000Z,45
2018-05-29T06:59:53.000Z,44
2018-05-29T07:00:53.000Z,44
2018-05-29T07:01:53.000Z,44
2018-05-29T07:02:53.000Z,44
2018-05-29T07:03:53.000Z,44
2018-05-29T07:04:53.000Z,44
2018-05-29T07:05:53.000Z,44
2018-05-29T07:06:53.000Z,44
2018-05-29T07:07:53.000Z,43
2018-05-29T07:08:53.000Z,43
2018-05-29T07:09:53.000Z,43
2018-05-29T07:11:53.000Z,43
2018-05-29T07:12:53.000Z,43
2018-05-29T07:13:53.000Z,43
2018-05-29T07:14:53.000Z,43
2018-05-29T07:15:53.000Z,43
2018-05-29T07:16:53.000Z,43
2018-05-29T07:18:53.000Z,42
2018-05-29T07:19:53.000Z,43
2018-05-29T07:20:53.000Z,42
2018-05-29T07:22:53.000Z,42
2018-05-29T07:23:53.000Z,42
2018-05-29T07:24:53.000Z,42
2018-05-29T07:25:53.000Z,42
2018-05-29T07:27:53.000Z,42
2018-05-29T07:28:53.000Z,42
2018-05-29T07:29:53.000Z,42
2018-05-29T07:30:53.000Z,42
2018-05-29T07:31:53.000Z,42
2018-05-29T07:32:53.000Z,42
2018-05-29T07:33:53.000Z,42
2018-05-29T07:34:53.000Z,42
2018-05-29T07:35:53.000Z,42
2018-05-29T07:36:53.000Z,42
2018-05-29T07:38:53.000Z,42
2018-05-29T07:39:53.000Z,42
2018-05-29T07:40:53.000Z,42
2018-05-29T07:41:53.000Z,41
2018-05-29T07:42:53.000Z,41
2018-05-29T07:43:53.000Z,41
2018-05-29T07:44:53.000Z,41
2018-05-29T07:45:53.000Z,41
2018-05-29T07:46:53.000Z,41
2018-05-29T07:47:53.000Z,41
2018-05-29T07:48:53.000Z,41
2018-05-29T07:49:53.000Z,41
2018-05-29T07:50:53.000Z,41
2018-05-29T07:51:53.000Z,41
2018-05-29T07:52:53.000Z,41
2018-05-29T07:54:53.000Z,41
2018-05-29T07:55:53.000Z,41
2018-05-29T07:56:53.000Z,41
2018-05-29T07:57:53.000Z,41
2018-05-29T07:59:53.000Z,41
2018-05-29T08:00:53.000Z,41
2018-05-29T08:01:53.000Z,41
2018-05-29T08:02:53.000Z,41
2018-05-29T08:03:53.000Z,40
2018-05-29T08:04:53.000Z,40
2018-05-29T08:05:53.000Z,40
2018-05-29T08:06:53.000Z,40
2018-05-29T08:07:53.000Z,40
2018-05-29T08:08:53.000Z,40
2018-05-29T08:09:53.000Z,40
2018-05-29T08:10:53.000Z,40
2018-05-29T08:11:53.000Z,40
2018-05-29T08:13:53.000Z,40
2018-05-29T08:14:53.000Z,40
2018-05-29T08:15:53.000Z,40
2018-05-29T08:16:53.000Z,40
2018-05-29T08:18:53.000Z,40
2018-05-29T08:19:53.000Z,40
2018-05-29T08:21:53.000Z,40
2018-05-29T08:22:53.000Z,40
2018-05-29T08:23:53.000Z,40
2018-05-29T08:24:53.000Z,41
2018-05-29T08:25:53.000Z,41
2018-05-29T08:26:53.000Z,41
2018-05-29T08:27:53.000Z,41
2018-05-29T08:29:53.000Z,40
2018-05-29T08:30:53.000Z,40
2018-05-29T08:31:53.000Z,40
2018-05-29T08:32:53.000Z,40
2018-05-29T08:33:53.000Z,40
2018-05-29T08:34:53.000Z,40
2018-05-29T08:35:53.000Z,40
2018-05-29T08:36:53.000Z,40
2018-05-29T08:37:53.000Z,40
2018-05-29T08:38:53.000Z,40
2018-05-29T08:39:53.000Z,40
2018-05-29T08:40:53.000Z,40
2018-05-29T08:41:53.000Z,40
2018-05-29T08:42:53.000Z,40
2018-05-29T08:43:53.000Z,40
2018-05-29T08:44:53.000Z,40
2018-05-29T08:46:53.000Z,40
2018-05-29T08:48:53.000Z,40
2018-05-29T08:50:53.000Z,40
2018-05-29T08:51:53.000Z,40
2018-05-29T08:52:53.000Z,41
2018-05-29T08:53:53.000Z,41
2018-05-29T08:54:53.000Z,41
2018-05-29T08:55:53.000Z,41
2018-05-29T08:56:53.000Z,40
2018-05-29T08:57:53.000Z,41
2018-05-29T08:58:53.000Z,41
2018-05-29T09:00:53.000Z,40
2018-05-29T09:01:53.000Z,40
2018-05-29T09:02:53.000Z,40
2018-05-29T09:03:53.000Z,40
2018-05-29T09:04:53.000Z,40
2018-05-29T09:05:53.000Z,40
2018-05-29T09:07:53.000Z,39
2018-05-29T09:08:53.000Z,39
2018-05-29T09:09:53.000Z,39
2018-05-29T09:11:53.000Z,39
2018-05-29T09:12:53.000Z,39
2018-05-29T09:13:53.000Z,39
2018-05-29T09:15:53.000Z,39
2018-05-29T09:16:53.000Z,39
2018-05-29T09:17:53.000Z,39
2018-05-29T09:18:53.000Z,39
2018-05-29T09:19:53.000Z,39
2018-05-29T09:20:53.000Z,39
2018-05-29T09:21:53.000Z,39
2018-05-29T09:22:53.000Z,39
2018-05-29T09:23:53.000Z,39
2018-05-29T09:24:53.000Z,38
2018-05-29T09:25:53.000Z,38
2018-05-29T09:27:53.000Z,38
2018-05-29T09:28:53.000Z,38
2018-05-29T09:29:53.000Z,38
2018-05-29T09:30:53.000Z,38
2018-05-29T09:31:53.000Z,38
2018-05-29T09:32:53.000Z,38
2018-05-29T09:33:53.000Z,38
2018-05-29T09:34:53.000Z,38
2018-05-29T09:35:53.000Z,38
2018-05-29T09:36:53.000Z,38
2018-05-29T09:38:53.000Z,38
2018-05-29T09:39:53.000Z,38
2018-05-29T09:40:53.000Z,38
2018-05-29T09:42:53.000Z,38
2018-05-29T09:43:53.000Z,38
2018-05-29T09:44:53.000Z,38
2018-05-29T09:45:53.000Z,38
2018-05-29T09:47:53.000Z,38
2018-05-29T09:48:53.000Z,38
2018-05-29T09:49:53.000Z,38
2018-05-29T09:50:53.000Z,38
2018-05-29T09:51:53.000Z,38
2018-05-29T09:52:53.000Z,38
2018-05-29T09:53:53.000Z,38
2018-05-29T09:54:53.000Z,38
2018-05-29T09:55:53.000Z,37
2018-05-29T09:56:53.000Z,37
2018-05-29T09:57:53.000Z,37
2018-05-29T09:58:53.000Z,37
2018-05-29T10:00:53.000Z,37
2018-05-29T10:01:53.000Z,38
2018-05-29T10:02:53.000Z,38
2018-05-29T10:03:53.000Z,38
2018-05-29T10:04:53.000Z,38
2018-05-29T10:05:53.000Z,38
2018-05-29T10:06:53.000Z,37
2018-05-29T10:07:53.000Z,37
2018-05-29T10:08:53.000Z,37
2018-05-29T10:09:53.000Z,37
2018-05-29T10:10:53.000Z,37
2018-05-29T10:11:53.000Z,37
2018-05-29T10:13:53.000Z,37
2018-05-29T10:14:53.000Z,38
2018-05-29T10:15:53.000Z,37
2018-05-29T10:16:53.000Z,38
2018-05-29T10:18:53.000Z,38
2018-05-29T10:19:53.000Z,38
2018-05-29T10:20:53.000Z,38
2018-05-29T10:21:53.000Z,38
2018-05-29T10:22:53.000Z,38
2018-05-29T10:23:53.000Z,38
2018-05-29T10:24:53.000Z,38
2018-05-29T10:25:53.000Z,38
2018-05-29T10:26:53.000Z,38
2018-05-29T10:27:53.000Z,38
2018-05-29T10:28:53.000Z,38
2018-05-29T10:29:53.000Z,38
2018-05-29T10:30:53.000Z,38
2018-05-29T10:31:53.000Z,38
2018-05-29T10:32:53.000Z,38
2018-05-29T10:33:53.000Z,38
2018-05-29T10:34:53.000Z,39
2018-05-29T10:35:53.000Z,38
2018-05-29T10:36:53.000Z,39
2018-05-29T10:37:53.000Z,38
2018-05-29T10:39:53.000Z,39
2018-05-29T10:40:53.000Z,39
2018-05-29T10:42:53.000Z,39
2018-05-29T10:43:53.000Z,39
2018-05-29T10:44:53.000Z,39
2018-05-29T10:46:53.000Z,39
2018-05-29T10:47:53.000Z,39
2018-05-29T10:48:53.000Z,39
2018-05-29T10:49:53.000Z,39
2018-05-29T10:51:53.000Z,39
2018-05-29T10:52:53.000Z,39
2018-05-29T10:53:53.000Z,39
2018-05-29T10:54:53.000Z,39
2018-05-29T10:55:53.000Z,39
2018-05-29T10:56:53.000Z,39
2018-05-29T10:58:53.000Z,39
2018-05-29T10:59:53.000Z,39
2018-05-29T11:01:53.000Z,39
2018-05-29T11:03:53.000Z,39
2018-05-29T11:05:53.000Z,39
2018-05-29T11:06:53.000Z,39
2018-05-29T11:08:53.000Z,39
2018-05-29T11:09:53.000Z,39
2018-05-29T11:10:53.000Z,39
2018-05-29T11:11:53.000Z,39
2018-05-29T11:12:53.000Z,39
2018-05-29T11:13:53.000Z,39
2018-05-29T11:14:53.000Z,39
2018-05-29T11:15:53.000Z,39
2018-05-29T11:16:53.000Z,39
2018-05-29T11:17:53.000Z,39
2018-05-29T11:18:53.000Z,39
2018-05-29T11:19:53.000Z,39
2018-05-29T11:21:53.000Z,38
2018-05-29T11:22:53.000Z,39
2018-05-29T11:24:53.000Z,38
2018-05-29T11:25:53.000Z,38
2018-05-29T11:26:53.000Z,38
2018-05-29T11:27:53.000Z,38
2018-05-29T11:28:53.000Z,38
2018-05-29T11:29:53.000Z,38
2018-05-29T11:30:53.000Z,38
2018-05-29T11:31:53.000Z,38
2018-05-29T11:32:53.000Z,38
2018-05-29T11:33:53.000Z,38
2018-05-29T11:34:53.000Z,38
2018-05-29T11:35:53.000Z,38
2018-05-29T11:36:53.000Z,38
2018-05-29T11:37:53.000Z,38
2018-05-29T11:39:52.000Z,38
2018-05-29T11:40:52.000Z,38
2018-05-29T11:41:52.000Z,39
2018-05-29T11:42:52.000Z,39
2018-05-29T11:43:52.000Z,39
2018-05-29T11:44:52.000Z,39
2018-05-29T11:45:52.000Z,39
2018-05-29T11:46:52.000Z,39
2018-05-29T11:47:52.000Z,39
2018-05-29T11:48:52.000Z,40
2018-05-29T11:49:52.000Z,40
2018-05-29T11:50:52.000Z,40
2018-05-29T11:52:52.000Z,39
2018-05-29T11:53:52.000Z,40
2018-05-29T11:54:52.000Z,39
2018-05-29T11:55:52.000Z,39
2018-05-29T11:56:52.000Z,39
2018-05-29T11:58:52.000Z,39
2018-05-29T11:59:52.000Z,39
2018-05-29T12:00:52.000Z,39
2018-05-29T12:01:52.000Z,40
2018-05-29T12:02:52.000Z,40
2018-05-29T12:03:52.000Z,40
2018-05-29T12:04:52.000Z,40
2018-05-29T12:06:52.000Z,39
2018-05-29T12:07:52.000Z,39
2018-05-29T12:08:52.000Z,39
2018-05-29T12:09:52.000Z,39
2018-05-29T12:10:52.000Z,39
2018-05-29T12:11:52.000Z,39
2018-05-29T12:12:52.000Z,39
2018-05-29T12:14:52.000Z,38
2018-05-29T12:15:52.000Z,38
2018-05-29T12:16:52.000Z,38
2018-05-29T12:17:52.000Z,38
2018-05-29T12:18:52.000Z,38
2018-05-29T12:19:52.000Z,39
2018-05-29T12:20:52.000Z,38
2018-05-29T12:21:52.000Z,39
2018-05-29T12:22:52.000Z,38
2018-05-29T12:24:52.000Z,38
2018-05-29T12:25:52.000Z,38
2018-05-29T12:26:52.000Z,39
2018-05-29T12:27:52.000Z,39
2018-05-29T12:28:52.000Z,39
2018-05-29T12:29:52.000Z,39
2018-05-29T12:30:52.000Z,39
2018-05-29T12:31:52.000Z,39
2018-05-29T12:32:52.000Z,39
2018-05-29T12:33:52.000Z,39
2018-05-29T12:34:52.000Z,39
2018-05-29T12:35:52.000Z,39
2018-05-29T12:36:52.000Z,39
2018-05-29T12:37:52.000Z,39
2018-05-29T12:38:52.000Z,39
2018-05-29T12:39:52.000Z,39
2018-05-29T12:41:52.000Z,39
2018-05-29T12:42:52.000Z,39
2018-05-29T12:43:53.000Z,39
2018-05-29T12:44:53.000Z,39
2018-05-29T12:45:53.000Z,39
2018-05-29T12:46:53.000Z,39
2018-05-29T12:47:53.000Z,39
2018-05-29T12:48:53.000Z,38
2018-05-29T12:49:53.000Z,39
2018-05-29T12:50:53.000Z,38
2018-05-29T12:51:53.000Z,39
2018-05-29T12:52:53.000Z,39
2018-05-29T12:53:53.000Z,39
2018-05-29T12:55:53.000Z,39
2018-05-29T12:56:53.000Z,39
2018-05-29T12:57:53.000Z,39
2018-05-29T12:58:53.000Z,39
2018-05-29T13:00:53.000Z,39
2018-05-29T13:01:53.000Z,39
2018-05-29T13:03:53.000Z,39
2018-05-29T13:04:53.000Z,39
2018-05-29T13:05:53.000Z,39
2018-05-29T13:06:53.000Z,40
2018-05-29T13:07:53.000Z,39
2018-05-29T13:09:53.000Z,39
2018-05-29T13:10:53.000Z,39
2018-05-29T13:11:53.000Z,39
2018-05-29T13:12:53.000Z,39
2018-05-29T13:13:53.000Z,39
2018-05-29T13:14:53.000Z,39
2018-05-29T13:15:53.000Z,39
2018-05-29T13:16:53.000Z,39
2018-05-29T13:18:53.000Z,39
2018-05-29T13:19:53.000Z,39
2018-05-29T13:21:53.000Z,39
2018-05-29T13:22:53.000Z,40
2018-05-29T13:23:53.000Z,40
2018-05-29T13:24:53.000Z,40
2018-05-29T13:25:53.000Z,41
2018-05-29T13:26:53.000Z,41
2018-05-29T13:27:53.000Z,42
2018-05-29T13:28:53.000Z,42
2018-05-29T13:29:53.000Z,42
2018-05-29T13:30:53.000Z,42
2018-05-29T13:31:53.000Z,42
2018-05-29T13:32:53.000Z,42
2018-05-29T13:33:53.000Z,42
2018-05-29T13:34:53.000Z,42
2018-05-29T13:36:53.000Z,42
2018-05-29T13:37:53.000Z,42
2018-05-29T13:38:53.000Z,42
2018-05-29T13:39:53.000Z,41
2018-05-29T13:40:53.000Z,42
2018-05-29T13:41:53.000Z,42
2018-05-29T13:42:53.000Z,41
2018-05-29T13:43:53.000Z,41
2018-05-29T13:44:53.000Z,41
2018-05-29T13:45:53.000Z,41
2018-05-29T13:46:53.000Z,41
2018-05-29T13:47:53.000Z,41
2018-05-29T13:48:53.000Z,41
2018-05-29T13:49:53.000Z,41
2018-05-29T13:50:53.000Z,41
2018-05-29T13:51:53.000Z,41
2018-05-29T13:52:53.000Z,41
2018-05-29T13:53:53.000Z,41
2018-05-29T13:54:53.000Z,41
2018-05-29T13:55:53.000Z,41
2018-05-29T13:56:53.000Z,40
2018-05-29T13:57:53.000Z,41
2018-05-29T13:58:53.000Z,41
2018-05-29T14:00:53.000Z,40
2018-05-29T14:01:53.000Z,40
2018-05-29T14:03:53.000Z,40
2018-05-29T14:04:53.000Z,41
2018-05-29T14:06:53.000Z,40
2018-05-29T14:07:53.000Z,41
2018-05-29T14:08:53.000Z,41
2018-05-29T14:09:53.000Z,41
2018-05-29T14:10:53.000Z,41
2018-05-29T14:11:53.000Z,41
2018-05-29T14:12:53.000Z,41
2018-05-29T14:13:53.000Z,41
2018-05-29T14:14:53.000Z,41
2018-05-29T14:15:53.000Z,41
2018-05-29T14:17:53.000Z,41
2018-05-29T14:18:53.000Z,41
2018-05-29T14:19:53.000Z,41
2018-05-29T14:20:53.000Z,41
2018-05-29T14:21:53.000Z,41
2018-05-29T14:22:53.000Z,41
2018-05-29T14:23:53.000Z,41
2018-05-29T14:25:53.000Z,41
2018-05-29T14:26:53.000Z,41
2018-05-29T14:27:53.000Z,41
2018-05-29T14:28:53.000Z,41
2018-05-29T14:29:53.000Z,41
2018-05-29T14:31:53.000Z,41
2018-05-29T14:32:53.000Z,41
2018-05-29T14:33:53.000Z,41
2018-05-29T14:34:53.000Z,42
2018-05-29T14:35:53.000Z,42
2018-05-29T14:36:53.000Z,42
2018-05-29T14:37:53.000Z,42
2018-05-29T14:38:53.000Z,42
2018-05-29T14:39:53.000Z,42
2018-05-29T14:40:53.000Z,42
2018-05-29T14:42:53.000Z,41
2018-05-29T14:43:53.000Z,41
2018-05-29T14:44:53.000Z,42
2018-05-29T14:45:53.000Z,42
2018-05-29T14:46:53.000Z,42
2018-05-29T14:47:53.000Z,43
2018-05-29T14:48:53.000Z,43
2018-05-29T14:49:53.000Z,43
2018-05-29T14:50:53.000Z,44
2018-05-29T14:51:53.000Z,44
2018-05-29T14:52:53.000Z,44
2018-05-29T14:53:53.000Z,45
2018-05-29T14:54:53.000Z,45
2018-05-29T14:55:53.000Z,45
2018-05-29T14:56:53.000Z,45
2018-05-29T14:57:53.000Z,45
2018-05-29T14:58:53.000Z,46
2018-05-29T14:59:53.000Z,46
2018-05-29T15:00:53.000Z,46
2018-05-29T15:01:53.000Z,46
2018-05-29T15:02:53.000Z,46
2018-05-29T15:04:53.000Z,46
2018-05-29T15:05:53.000Z,47
2018-05-29T15:06:53.000Z,46
2018-05-29T15:07:53.000Z,47
2018-05-29T15:08:53.000Z,47
2018-05-29T15:09:53.000Z,47
2018-05-29T15:11:53.000Z,47
2018-05-29T15:12:53.000Z,47
2018-05-29T15:13:53.000Z,47
2018-05-29T15:14:53.000Z,47
2018-05-29T15:15:53.000Z,47
2018-05-29T15:17:53.000Z,48
2018-05-29T15:18:53.000Z,48
2018-05-29T15:19:53.000Z,48
2018-05-29T15:20:53.000Z,48
2018-05-29T15:21:53.000Z,47
2018-05-29T15:22:53.000Z,47
2018-05-29T15:23:53.000Z,47
2018-05-29T15:24:53.000Z,47
2018-05-29T15:25:53.000Z,46
2018-05-29T15:27:53.000Z,46
2018-05-29T15:28:53.000Z,46
2018-05-29T15:30:53.000Z,46
2018-05-29T15:32:53.000Z,46
2018-05-29T15:33:53.000Z,46
2018-05-29T15:34:53.000Z,46
2018-05-29T15:35:53.000Z,46
2018-05-29T15:36:53.000Z,46
2018-05-29T15:37:53.000Z,46
2018-05-29T15:39:53.000Z,46
2018-05-29T15:40:53.000Z,46
2018-05-29T15:41:53.000Z,46
2018-05-29T15:42:53.000Z,46
2018-05-29T15:43:53.000Z,46
2018-05-29T15:44:53.000Z,46
2018-05-29T15:45:53.000Z,46
2018-05-29T15:46:53.000Z,47
2018-05-29T15:47:53.000Z,48
2018-05-29T15:48:53.000Z,48
2018-05-29T15:49:53.000Z,49
2018-05-29T15:50:53.000Z,49
2018-05-29T15:51:53.000Z,49
2018-05-29T15:52:53.000Z,49
2018-05-29T15:53:53.000Z,49
2018-05-29T15:54:53.000Z,48
2018-05-29T15:55:53.000Z,48
2018-05-29T15:56:53.000Z,48
2018-05-29T15:57:53.000Z,48
2018-05-29T15:58:53.000Z,48
2018-05-29T15:59:53.000Z,48
2018-05-29T16:00:53.000Z,48
2018-05-29T16:01:53.000Z,48